Time;durP1;ratioP1;P1;durP2;ratioP2;P2;SDS_P1;SDS_P2;PMS_P1;PMS_P2;Temp;Humidity;BMP_temperature;BMP_pressure;BME280_temperature;BME280_humidity;BME280_pressure;Samples;Min_cycle;Max_cycle;Signal;HPM_P1;HPM_P2
2022/02/28 00:01:10;;;;;;;17.82;6.95;;;0.20;99.90;;;;;;1937118;73;21372;-78
2022/02/28 00:03:38;;;;;;;8.13;6.47;;;0.20;99.90;;;;;;1935958;74;21018;-77
2022/02/28 00:06:05;;;;;;;9.55;6.37;;;0.10;99.90;;;;;;1942029;73;21051;-78
2022/02/28 00:08:32;;;;;;;19.60;7.03;;;0.10;99.90;;;;;;1942142;73;21125;-77
2022/02/28 00:10:59;;;;;;;14.45;7.03;;;0.00;99.90;;;;;;1934909;73;21120;-78
2022/02/28 00:13:27;;;;;;;8.68;6.37;;;0.00;99.90;;;;;;1958672;73;21404;-78
2022/02/28 00:15:54;;;;;;;13.18;7.42;;;0.10;99.90;;;;;;1933156;73;21045;-78
2022/02/28 00:18:23;;;;;;;11.95;6.50;;;0.10;99.90;;;;;;1906231;74;21079;-79
2022/02/28 00:20:50;;;;;;;10.55;7.05;;;0.10;99.90;;;;;;1937319;73;21416;-80
2022/02/28 00:23:17;;;;;;;16.80;6.90;;;0.20;99.90;;;;;;1935791;74;21132;-79
2022/02/28 00:25:44;;;;;;;12.63;7.05;;;0.20;99.90;;;;;;1934356;73;21446;-77
2022/02/28 00:28:12;;;;;;;9.00;6.47;;;0.10;99.90;;;;;;1946932;73;21032;-78
2022/02/28 00:30:39;;;;;;;14.90;7.58;;;0.10;99.90;;;;;;1935620;73;21024;-77
2022/02/28 00:33:07;;;;;;;10.15;7.08;;;-0.10;99.90;;;;;;1944272;73;21059;-76
2022/02/28 00:35:34;;;;;;;10.00;6.37;;;0.10;99.90;;;;;;1894733;75;21452;-78
2022/02/28 00:38:01;;;;;;;12.20;6.40;;;0.20;99.90;;;;;;1936438;73;21068;-79
2022/02/28 00:40:29;;;;;;;15.88;9.35;;;0.20;99.90;;;;;;1937803;73;21133;-80
2022/02/28 00:42:56;;;;;;;23.32;9.73;;;0.10;99.90;;;;;;1933665;73;21121;-78
2022/02/28 00:45:23;;;;;;;9.20;7.42;;;0.20;99.90;;;;;;1899873;75;21186;-79
2022/02/28 00:47:50;;;;;;;9.83;7.28;;;0.10;99.90;;;;;;1870420;76;21117;-79
2022/02/28 00:50:18;;;;;;;11.85;7.05;;;0.10;99.90;;;;;;1932662;73;21122;-80
2022/02/28 00:52:45;;;;;;;10.70;7.83;;;0.10;99.90;;;;;;1935972;74;21365;-80
2022/02/28 00:55:13;;;;;;;15.68;7.60;;;0.10;99.90;;;;;;1933814;73;21102;-78
2022/02/28 00:58:16;;;;;;;13.45;7.62;;;0.00;99.90;;;;;;1932236;73;21055;-80
2022/02/28 01:00:44;;;;;;;13.85;7.12;;;0.00;99.90;;;;;;1948011;73;21487;-79
2022/02/28 01:03:11;;;;;;;15.45;7.95;;;-0.10;99.90;;;;;;1940703;73;21140;-79
2022/02/28 01:05:38;;;;;;;10.40;7.55;;;-0.10;99.90;;;;;;1935822;73;21055;-79
2022/02/28 01:08:05;;;;;;;11.83;7.47;;;0.00;99.90;;;;;;1935610;73;21394;-80
2022/02/28 01:10:33;;;;;;;11.35;7.35;;;-0.20;99.90;;;;;;1935745;74;21089;-78
2022/02/28 01:13:00;;;;;;;16.17;8.18;;;-0.10;99.90;;;;;;1947299;73;21443;-78
2022/02/28 01:15:27;;;;;;;12.33;7.85;;;-0.10;99.90;;;;;;1951569;73;21027;-79
2022/02/28 01:17:55;;;;;;;13.20;8.38;;;-0.20;99.90;;;;;;1901458;73;21124;-78
2022/02/28 01:20:22;;;;;;;10.00;7.17;;;-0.20;99.90;;;;;;1901396;75;21040;-79
2022/02/28 01:22:49;;;;;;;12.63;7.58;;;-0.20;99.90;;;;;;1941574;73;21130;-78
2022/02/28 01:25:17;;;;;;;10.65;7.10;;;-0.20;99.90;;;;;;1931217;73;21458;-76
2022/02/28 01:27:44;;;;;;;12.07;7.67;;;-0.30;99.90;;;;;;1905714;75;21071;-76
2022/02/28 01:30:12;;;;;;;17.73;7.53;;;-0.20;99.90;;;;;;1909744;75;21471;-75
2022/02/28 01:32:39;;;;;;;12.53;8.23;;;-0.30;99.90;;;;;;1902740;75;21138;-76
2022/02/28 01:35:10;;;;;;;14.03;8.30;;;-0.30;99.90;;;;;;1931446;73;21564;-77
2022/02/28 01:37:38;;;;;;;16.15;8.20;;;-0.30;99.90;;;;;;1951239;73;21560;-76
2022/02/28 01:40:06;;;;;;;14.25;7.53;;;-0.30;99.90;;;;;;1942936;73;21058;-76
2022/02/28 01:42:34;;;;;;;13.62;7.78;;;-0.40;99.90;;;;;;1932641;73;21113;-78
2022/02/28 01:45:01;;;;;;;13.78;8.45;;;-0.40;99.90;;;;;;1909662;74;21397;-79
2022/02/28 01:47:28;;;;;;;16.67;7.92;;;-0.40;99.90;;;;;;1942261;73;21136;-76
2022/02/28 01:49:56;;;;;;;13.62;7.20;;;-0.30;99.90;;;;;;1944666;73;21059;-76
2022/02/28 01:52:25;;;;;;;12.33;7.35;;;-0.40;99.90;;;;;;1930522;73;21188;-76
2022/02/28 01:54:53;;;;;;;12.40;7.90;;;-0.40;99.90;;;;;;1908455;75;21160;-77
2022/02/28 01:57:20;;;;;;;9.63;7.03;;;-0.50;99.90;;;;;;1935612;74;20993;-77
2022/02/28 01:59:47;;;;;;;16.57;7.78;;;-0.40;99.90;;;;;;1940496;73;21463;-77
2022/02/28 02:02:15;;;;;;;12.30;7.58;;;-0.50;99.90;;;;;;1928645;73;21056;-77
2022/02/28 02:04:42;;;;;;;14.35;7.25;;;-0.50;99.90;;;;;;1936946;73;21141;-77
2022/02/28 02:07:10;;;;;;;11.35;7.53;;;-0.40;99.90;;;;;;1945610;73;21226;-77
2022/02/28 02:09:37;;;;;;;16.30;8.28;;;-0.50;99.90;;;;;;1935642;74;21149;-76
2022/02/28 02:12:05;;;;;;;11.75;7.45;;;-0.40;99.90;;;;;;1932731;73;21050;-76
2022/02/28 02:14:33;;;;;;;11.20;8.00;;;-0.50;99.90;;;;;;1937209;73;21542;-76
2022/02/28 02:17:00;;;;;;;17.42;7.72;;;-0.40;99.90;;;;;;1928067;73;21123;-77
2022/02/28 02:19:27;;;;;;;15.32;8.90;;;-0.50;99.90;;;;;;1898041;75;21155;-78
2022/02/28 02:21:55;;;;;;;12.18;8.18;;;-0.60;99.90;;;;;;1902126;75;21471;-79
2022/02/28 02:24:22;;;;;;;12.75;7.10;;;-0.50;99.90;;;;;;1858843;76;21078;-75
2022/02/28 02:26:49;;;;;;;13.80;8.25;;;-0.50;99.90;;;;;;1932369;73;21415;-77
2022/02/28 02:29:17;;;;;;;10.72;6.65;;;-0.50;99.90;;;;;;1901337;75;21071;-76
2022/02/28 02:31:44;;;;;;;23.52;7.67;;;-0.50;99.90;;;;;;1934354;73;21149;-76
2022/02/28 02:34:11;;;;;;;15.45;7.55;;;-0.50;99.90;;;;;;1939192;73;21063;-78
2022/02/28 02:36:41;;;;;;;19.57;7.42;;;-0.60;99.90;;;;;;1938598;73;21056;-77
2022/02/28 02:39:09;;;;;;;13.85;8.45;;;-0.60;99.90;;;;;;1936115;74;21079;-76
2022/02/28 02:41:37;;;;;;;13.15;7.95;;;-0.60;99.90;;;;;;1938147;73;21456;-78
2022/02/28 02:44:04;;;;;;;16.82;8.15;;;-0.60;99.90;;;;;;1935776;73;21064;-77
2022/02/28 02:46:32;;;;;;;18.07;8.95;;;-0.70;99.90;;;;;;1935873;74;21027;-76
2022/02/28 02:48:59;;;;;;;13.28;7.33;;;-0.70;99.90;;;;;;1936030;73;21112;-77
2022/02/28 02:51:26;;;;;;;13.20;7.30;;;-0.80;99.90;;;;;;1937220;73;21137;-77
2022/02/28 02:53:54;;;;;;;12.45;7.65;;;-0.80;99.90;;;;;;1935872;74;21032;-77
2022/02/28 02:56:21;;;;;;;11.90;8.10;;;-0.80;99.90;;;;;;1931923;73;21500;-76
2022/02/28 02:58:48;;;;;;;13.68;7.33;;;-0.70;99.90;;;;;;1946145;73;21028;-77
2022/02/28 03:01:15;;;;;;;14.30;7.70;;;-0.70;99.90;;;;;;1932623;73;21451;-76
2022/02/28 03:03:43;;;;;;;13.75;7.58;;;-0.70;99.90;;;;;;1937477;73;21075;-77
2022/02/28 03:06:10;;;;;;;14.33;8.08;;;-0.70;99.90;;;;;;1935901;74;21090;-76
2022/02/28 03:08:37;;;;;;;12.70;7.58;;;-0.80;99.90;;;;;;1929156;73;21054;-75
2022/02/28 03:11:05;;;;;;;11.35;7.05;;;-0.90;99.90;;;;;;1907221;75;21008;-75
2022/02/28 03:13:32;;;;;;;15.03;7.70;;;-0.80;99.90;;;;;;1935830;74;21089;-76
2022/02/28 03:15:59;;;;;;;14.58;8.20;;;-0.80;99.90;;;;;;1929221;73;21056;-76
2022/02/28 03:18:27;;;;;;;13.22;8.18;;;-0.80;99.90;;;;;;1946398;73;21108;-76
2022/02/28 03:20:54;;;;;;;16.52;7.72;;;-0.80;99.90;;;;;;1901611;75;21063;-77
2022/02/28 03:23:21;;;;;;;14.07;7.95;;;-0.80;99.90;;;;;;1938629;73;21271;-77
2022/02/28 03:25:48;;;;;;;14.53;7.90;;;-0.80;99.90;;;;;;1895102;75;21114;-77
2022/02/28 03:28:16;;;;;;;11.55;7.75;;;-0.90;99.90;;;;;;1929240;73;21537;-77
2022/02/28 03:30:43;;;;;;;26.68;7.65;;;-0.90;99.90;;;;;;1929330;73;21184;-75
2022/02/28 03:33:11;;;;;;;9.80;7.53;;;-0.90;99.90;;;;;;1930732;73;21027;-77
2022/02/28 03:35:38;;;;;;;10.13;6.97;;;-0.90;99.90;;;;;;1942757;73;21009;-78
2022/02/28 03:38:05;;;;;;;12.18;7.83;;;-0.90;99.90;;;;;;1942455;73;21502;-76
2022/02/28 03:40:33;;;;;;;12.82;7.15;;;-1.00;99.90;;;;;;1947351;73;21095;-77
2022/02/28 03:43:05;;;;;;;20.73;7.80;;;-0.90;99.90;;;;;;1935826;74;21558;-77
2022/02/28 03:45:29;;;;;;;13.18;7.37;;;-0.90;99.90;;;;;;1932019;73;21095;-77
2022/02/28 03:47:57;;;;;;;11.55;7.65;;;-1.00;99.90;;;;;;1940867;73;21120;-77
2022/02/28 03:50:24;;;;;;;12.45;7.87;;;-1.00;99.90;;;;;;1935818;73;21456;-77
2022/02/28 03:52:52;;;;;;;15.23;7.50;;;-1.00;99.90;;;;;;1935861;74;21478;-77
2022/02/28 03:55:20;;;;;;;12.47;6.87;;;-1.10;99.90;;;;;;1932692;73;21059;-78
2022/02/28 03:57:48;;;;;;;12.58;7.58;;;-1.10;99.90;;;;;;1935893;73;21031;-77
2022/02/28 04:00:15;;;;;;;14.20;6.92;;;-1.10;99.90;;;;;;1943174;73;21428;-76
2022/02/28 04:02:42;;;;;;;10.23;6.90;;;-1.10;99.90;;;;;;1935882;73;21054;-78
2022/02/28 04:05:10;;;;;;;13.45;7.30;;;-1.10;99.90;;;;;;1958675;73;20995;-76
2022/02/28 04:07:38;;;;;;;11.48;7.65;;;-1.10;99.90;;;;;;1936016;73;21039;-77
2022/02/28 04:10:07;;;;;;;10.95;7.53;;;-1.10;99.90;;;;;;1904626;75;21056;-76
2022/02/28 04:12:34;;;;;;;13.70;8.28;;;-1.10;99.90;;;;;;1936579;73;21136;-77
2022/02/28 04:15:01;;;;;;;11.33;7.58;;;-1.10;99.90;;;;;;1944696;73;21094;-77
2022/02/28 04:17:29;;;;;;;11.53;7.40;;;-1.10;99.90;;;;;;1936289;74;21473;-77
2022/02/28 04:19:56;;;;;;;13.13;7.40;;;-1.20;99.90;;;;;;1936475;74;21004;-77
2022/02/28 04:22:23;;;;;;;14.73;7.40;;;-1.20;99.90;;;;;;1937604;73;21532;-77
2022/02/28 04:24:51;;;;;;;12.03;7.70;;;-1.30;99.90;;;;;;1937092;73;21133;-78
2022/02/28 04:27:18;;;;;;;11.22;7.33;;;-1.30;99.90;;;;;;1936369;74;21085;-78
2022/02/28 04:29:45;;;;;;;10.60;7.80;;;-1.30;99.90;;;;;;1936312;73;21133;-77
2022/02/28 04:32:14;;;;;;;13.65;8.10;;;-1.30;99.90;;;;;;1929184;73;21055;-76
2022/02/28 04:34:41;;;;;;;13.30;7.95;;;-1.30;99.90;;;;;;1901955;75;21067;-77
2022/02/28 04:37:09;;;;;;;22.85;8.65;;;-1.30;99.90;;;;;;1904979;75;21065;-77
2022/02/28 04:39:36;;;;;;;12.73;8.48;;;-1.30;99.90;;;;;;1908057;75;21048;-77
2022/02/28 04:42:04;;;;;;;19.17;7.75;;;-1.20;99.90;;;;;;1935892;73;21181;-77
2022/02/28 04:44:32;;;;;;;13.95;7.35;;;-1.30;99.90;;;;;;1935828;73;21044;-77
2022/02/28 04:47:01;;;;;;;13.28;8.28;;;-1.30;99.90;;;;;;1933053;73;21234;-77
2022/02/28 04:49:29;;;;;;;13.03;7.75;;;-1.40;99.90;;;;;;1900052;75;21092;-77
2022/02/28 04:51:56;;;;;;;11.45;8.15;;;-1.30;99.90;;;;;;1932537;73;21050;-76
2022/02/28 04:54:23;;;;;;;16.27;9.18;;;-1.40;99.90;;;;;;1894455;75;21452;-77
2022/02/28 04:56:50;;;;;;;15.93;9.03;;;-1.30;99.90;;;;;;1941150;73;21054;-77
2022/02/28 04:59:18;;;;;;;19.62;8.05;;;-1.30;99.90;;;;;;1942258;73;21129;-77
2022/02/28 05:01:45;;;;;;;13.70;9.00;;;-1.50;99.90;;;;;;1942321;73;21027;-75
2022/02/28 05:04:12;;;;;;;17.37;9.20;;;-1.50;99.90;;;;;;1907109;75;21121;-77
2022/02/28 05:06:40;;;;;;;14.30;7.97;;;-1.50;99.90;;;;;;1934879;73;21089;-76
2022/02/28 05:09:07;;;;;;;14.70;8.80;;;-1.50;99.90;;;;;;1915319;74;21063;-75
2022/02/28 05:11:34;;;;;;;15.95;8.48;;;-1.40;99.90;;;;;;1938748;73;21062;-77
2022/02/28 05:14:02;;;;;;;14.68;7.87;;;-1.40;99.90;;;;;;1906831;75;21036;-77
2022/02/28 05:16:29;;;;;;;17.48;8.05;;;-1.50;99.90;;;;;;1932813;73;21492;-75
2022/02/28 05:18:56;;;;;;;11.20;7.87;;;-1.50;99.90;;;;;;1935834;74;21133;-78
2022/02/28 05:21:24;;;;;;;14.78;7.92;;;-1.60;99.90;;;;;;1935861;74;21059;-78
2022/02/28 05:23:51;;;;;;;10.48;7.00;;;-1.60;99.90;;;;;;1935733;74;21035;-76
2022/02/28 05:26:18;;;;;;;15.65;7.75;;;-1.60;99.90;;;;;;1932127;73;21110;-76
2022/02/28 05:28:45;;;;;;;13.88;7.47;;;-1.60;99.90;;;;;;1925222;73;21440;-77
2022/02/28 05:31:13;;;;;;;15.00;8.05;;;-1.70;99.90;;;;;;1932586;73;21171;-76
2022/02/28 05:33:40;;;;;;;12.40;7.47;;;-1.60;99.90;;;;;;1930991;73;21491;-76
2022/02/28 05:36:07;;;;;;;13.30;8.10;;;-1.60;99.90;;;;;;1899297;75;21060;-75
2022/02/28 05:38:35;;;;;;;18.45;9.25;;;-1.60;99.90;;;;;;1935831;74;21032;-75
2022/02/28 05:41:02;;;;;;;12.58;7.58;;;-1.50;99.90;;;;;;1937464;73;21040;-76
2022/02/28 05:43:29;;;;;;;14.23;8.38;;;-1.50;99.90;;;;;;1940018;73;21106;-75
2022/02/28 05:45:57;;;;;;;14.50;7.97;;;-1.60;99.90;;;;;;1928800;73;21063;-75
2022/02/28 05:48:24;;;;;;;17.30;8.70;;;-1.60;99.90;;;;;;1900204;75;21108;-76
2022/02/28 05:50:51;;;;;;;14.50;8.05;;;-1.70;99.90;;;;;;1901273;75;21067;-76
2022/02/28 05:53:18;;;;;;;14.50;8.58;;;-1.90;99.90;;;;;;1903987;75;21062;-75
2022/02/28 05:55:46;;;;;;;10.90;8.10;;;-1.80;99.90;;;;;;1934173;73;21194;-78
2022/02/28 05:58:14;;;;;;;15.78;7.97;;;-1.80;99.90;;;;;;1932794;73;21091;-76
2022/02/28 06:00:42;;;;;;;18.50;8.90;;;-1.70;99.90;;;;;;1936039;73;21064;-76
2022/02/28 06:03:10;;;;;;;15.58;8.80;;;-1.60;99.90;;;;;;1893519;73;21125;-75
2022/02/28 06:05:37;;;;;;;13.18;8.65;;;-1.70;99.90;;;;;;1898457;74;21113;-76
2022/02/28 06:08:04;;;;;;;14.30;7.80;;;-1.70;99.90;;;;;;1937223;73;21141;-76
2022/02/28 06:10:32;;;;;;;12.07;8.58;;;-1.70;99.90;;;;;;1935778;73;21020;-78
2022/02/28 06:13:00;;;;;;;14.20;8.83;;;-1.70;99.90;;;;;;1936258;73;21443;-76
2022/02/28 06:15:28;;;;;;;15.25;8.85;;;-1.60;99.90;;;;;;1937193;73;21133;-76
2022/02/28 06:17:55;;;;;;;18.55;9.23;;;-1.50;99.90;;;;;;1935780;74;21494;-76
2022/02/28 06:20:23;;;;;;;16.50;9.63;;;-1.60;99.90;;;;;;1935787;74;21033;-76
2022/02/28 06:22:50;;;;;;;14.50;9.65;;;-1.50;99.90;;;;;;1941418;73;21468;-76
2022/02/28 06:25:17;;;;;;;14.10;8.50;;;-1.60;99.90;;;;;;1935749;74;21028;-76
2022/02/28 06:27:45;;;;;;;14.60;8.83;;;-1.70;99.90;;;;;;1932709;73;21036;-76
2022/02/28 06:30:12;;;;;;;18.45;8.68;;;-1.70;99.90;;;;;;1932374;73;21133;-80
2022/02/28 06:32:39;;;;;;;18.07;10.10;;;-1.70;99.90;;;;;;1941584;73;21136;-79
2022/02/28 06:35:07;;;;;;;21.80;9.75;;;-1.70;99.90;;;;;;1945756;73;21060;-76
2022/02/28 06:37:34;;;;;;;12.75;8.45;;;-1.60;99.90;;;;;;1904774;75;21075;-77
2022/02/28 06:40:02;;;;;;;14.28;8.53;;;-1.50;99.90;;;;;;1935780;73;21064;-76
2022/02/28 06:42:29;;;;;;;14.73;9.58;;;-1.50;99.90;;;;;;1937868;73;21444;-76
2022/02/28 06:44:56;;;;;;;14.20;9.48;;;-1.50;99.90;;;;;;1929803;73;21101;-76
2022/02/28 06:47:24;;;;;;;13.15;9.13;;;-1.40;99.90;;;;;;1944038;73;21492;-76
2022/02/28 06:49:51;;;;;;;20.20;9.20;;;-1.40;99.90;;;;;;1945578;73;21159;-75
2022/02/28 06:52:18;;;;;;;18.17;9.45;;;-1.40;99.90;;;;;;1944202;73;21063;-78
2022/02/28 06:54:46;;;;;;;15.83;9.65;;;-1.40;99.90;;;;;;1940275;73;21063;-77
2022/02/28 06:57:13;;;;;;;18.98;9.93;;;-1.40;99.90;;;;;;1926243;73;21065;-77
2022/02/28 06:59:41;;;;;;;17.75;10.32;;;-1.30;99.90;;;;;;1903432;75;21071;-77
2022/02/28 07:02:08;;;;;;;14.00;9.50;;;-1.40;99.90;;;;;;1935711;73;21106;-77
2022/02/28 07:04:36;;;;;;;20.23;8.98;;;-1.30;99.90;;;;;;1926495;73;21029;-76
2022/02/28 07:07:03;;;;;;;17.75;9.78;;;-1.20;99.90;;;;;;1911545;75;21459;-79
2022/02/28 07:09:31;;;;;;;15.35;9.30;;;-1.20;99.90;;;;;;1932877;73;21149;-79
2022/02/28 07:11:58;;;;;;;17.90;9.73;;;-1.10;99.90;;;;;;1938492;73;21161;-77
2022/02/28 07:14:25;;;;;;;20.40;10.40;;;-1.00;99.90;;;;;;1906705;75;21060;-79
2022/02/28 07:16:52;;;;;;;14.15;9.70;;;-1.00;99.90;;;;;;1935727;73;21253;-78
2022/02/28 07:19:20;;;;;;;16.15;10.35;;;-1.00;99.90;;;;;;1936306;74;21008;-79
2022/02/28 07:21:49;;;;;;;18.48;10.30;;;-0.90;99.90;;;;;;1926134;73;21058;-78
2022/02/28 07:24:16;;;;;;;19.27;10.40;;;-0.80;99.90;;;;;;1944180;73;21533;-79
2022/02/28 07:26:43;;;;;;;19.35;9.75;;;-0.70;99.90;;;;;;1942293;73;21054;-79
2022/02/28 07:29:11;;;;;;;15.45;10.70;;;-0.60;99.90;;;;;;1941279;73;21439;-79
2022/02/28 07:31:39;;;;;;;29.18;11.05;;;-0.60;99.90;;;;;;1939894;73;21032;-79
2022/02/28 07:34:08;;;;;;;21.12;11.03;;;-0.40;99.90;;;;;;1935835;73;21071;-80
2022/02/28 07:36:35;;;;;;;19.42;11.15;;;-0.40;99.90;;;;;;1932806;73;21210;-79
2022/02/28 07:39:06;;;;;;;16.80;10.85;;;-0.30;99.90;;;;;;1935670;74;21122;-78
2022/02/28 07:41:33;;;;;;;13.20;10.10;;;-0.20;99.90;;;;;;1946045;73;21444;-79
2022/02/28 07:44:02;;;;;;;23.77;11.75;;;0.00;99.90;;;;;;1935987;74;21106;-79
2022/02/28 07:46:29;;;;;;;26.90;11.73;;;0.10;99.90;;;;;;1935656;74;21093;-79
2022/02/28 07:48:56;;;;;;;23.70;12.30;;;0.30;99.90;;;;;;1932699;73;21068;-79
2022/02/28 07:51:24;;;;;;;17.87;10.28;;;0.30;99.90;;;;;;1948743;73;21067;-77
2022/02/28 07:53:51;;;;;;;17.23;10.80;;;0.50;99.90;;;;;;1951698;73;21479;-77
2022/02/28 07:56:18;;;;;;;18.75;11.33;;;0.60;99.90;;;;;;1932445;73;21019;-78
2022/02/28 07:58:46;;;;;;;23.30;12.10;;;0.70;99.90;;;;;;1939957;73;21564;-78
2022/02/28 08:01:14;;;;;;;29.48;11.12;;;0.90;99.90;;;;;;1935841;74;21024;-78
2022/02/28 08:03:41;;;;;;;17.92;10.43;;;1.00;99.90;;;;;;1928574;73;21456;-79
2022/02/28 08:06:08;;;;;;;18.37;10.78;;;1.20;99.90;;;;;;1937162;73;21114;-79
2022/02/28 08:08:36;;;;;;;15.80;10.93;;;1.20;99.90;;;;;;1935814;74;21385;-79
2022/02/28 08:11:22;;;;;;;18.27;10.75;;;1.40;99.90;;;;;;1942272;73;21071;-79
2022/02/28 08:13:50;;;;;;;27.40;11.05;;;1.60;99.90;;;;;;1840566;77;21109;-79
2022/02/28 08:16:17;;;;;;;15.98;9.65;;;1.80;99.90;;;;;;1892497;76;21042;-78
2022/02/28 08:18:45;;;;;;;18.30;9.85;;;1.80;99.90;;;;;;1892551;76;21088;-78
2022/02/28 08:21:12;;;;;;;18.07;9.78;;;1.90;99.90;;;;;;1892300;76;21019;-78
2022/02/28 08:23:40;;;;;;;19.55;10.23;;;2.10;99.90;;;;;;1892410;76;21426;-78
2022/02/28 08:26:08;;;;;;;12.13;9.30;;;2.40;99.90;;;;;;1892237;76;21567;-78
2022/02/28 08:28:35;;;;;;;16.57;9.75;;;2.40;99.90;;;;;;1892378;76;21540;-79
2022/02/28 08:31:03;;;;;;;18.00;9.65;;;2.60;99.90;;;;;;1892370;76;21505;-79
2022/02/28 08:33:30;;;;;;;15.65;9.40;;;2.70;99.90;;;;;;1892551;76;21034;-78
2022/02/28 08:35:57;;;;;;;18.05;9.43;;;2.90;99.90;;;;;;1892460;76;21442;-78
2022/02/28 08:38:25;;;;;;;19.37;9.25;;;3.10;99.90;;;;;;1892574;76;21198;-77
2022/02/28 08:40:53;;;;;;;15.30;10.05;;;3.20;99.90;;;;;;1892819;76;21034;-78
2022/02/28 08:43:21;;;;;;;16.07;10.15;;;3.60;99.90;;;;;;1892538;76;21163;-78
2022/02/28 08:45:48;;;;;;;18.87;10.25;;;3.80;99.90;;;;;;1892658;76;21040;-78
2022/02/28 08:48:15;;;;;;;15.72;9.75;;;3.70;99.90;;;;;;1892748;76;21591;-78
2022/02/28 08:50:43;;;;;;;14.93;9.13;;;4.00;99.90;;;;;;1892589;76;21038;-78
2022/02/28 08:53:10;;;;;;;19.00;9.28;;;4.10;99.90;;;;;;1892613;76;21395;-79
2022/02/28 08:55:37;;;;;;;17.02;9.70;;;4.30;99.90;;;;;;1892428;76;21045;-78
2022/02/28 08:58:05;;;;;;;17.32;8.80;;;4.40;99.90;;;;;;1892683;76;21038;-78
2022/02/28 09:00:32;;;;;;;17.30;10.45;;;4.80;99.90;;;;;;1892562;76;21022;-78
2022/02/28 09:02:59;;;;;;;12.85;9.15;;;5.00;99.90;;;;;;1892614;76;21046;-78
2022/02/28 09:05:28;;;;;;;14.07;8.75;;;4.90;99.90;;;;;;1892628;76;21042;-78
2022/02/28 09:07:55;;;;;;;15.50;9.28;;;4.70;99.90;;;;;;1893488;76;21123;-79
2022/02/28 09:10:23;;;;;;;19.40;9.80;;;4.90;99.90;;;;;;1893809;76;21023;-78
2022/02/28 09:12:50;;;;;;;13.83;9.48;;;5.40;99.90;;;;;;1903804;75;21168;-77
2022/02/28 09:15:17;;;;;;;18.98;9.88;;;5.50;99.90;;;;;;1894824;76;21083;-78
2022/02/28 09:17:45;;;;;;;13.48;9.73;;;5.40;99.90;;;;;;1893024;76;21089;-78
2022/02/28 09:20:12;;;;;;;15.78;9.55;;;5.30;99.90;;;;;;1892979;76;21143;-78
2022/02/28 09:22:40;;;;;;;18.90;9.25;;;5.60;99.90;;;;;;1893272;76;21112;-79
2022/02/28 09:25:08;;;;;;;14.63;8.58;;;5.60;99.90;;;;;;1892949;76;21069;-79
2022/02/28 09:27:35;;;;;;;12.98;9.20;;;5.70;99.90;;;;;;1893836;76;21097;-78
2022/02/28 09:30:03;;;;;;;15.72;9.23;;;6.00;99.90;;;;;;1893806;76;21112;-80
2022/02/28 09:32:31;;;;;;;14.10;9.38;;;6.20;99.90;;;;;;1893285;76;21504;-81
2022/02/28 09:35:00;;;;;;;12.93;9.40;;;6.40;99.90;;;;;;1892692;76;21038;-80
2022/02/28 09:37:29;;;;;;;16.50;9.20;;;7.00;99.90;;;;;;1893874;76;21124;-79
2022/02/28 09:39:56;;;;;;;13.03;8.78;;;7.10;99.90;;;;;;1894716;76;21249;-80
2022/02/28 09:42:23;;;;;;;14.80;9.00;;;7.40;99.90;;;;;;1894418;76;21067;-77
2022/02/28 09:44:51;;;;;;;17.77;9.45;;;7.60;99.90;;;;;;1893691;76;21042;-79
2022/02/28 09:47:18;;;;;;;10.88;6.97;;;8.20;99.90;;;;;;1892443;76;21399;-79
2022/02/28 09:49:47;;;;;;;12.07;7.58;;;8.30;99.90;;;;;;1892468;76;21485;-80
2022/02/28 09:52:34;;;;;;;14.70;8.28;;;8.40;99.90;;;;;;1892488;76;21489;-80
2022/02/28 09:55:01;;;;;;;9.10;6.83;;;8.10;99.90;;;;;;1823864;77;21086;-80
2022/02/28 09:57:29;;;;;;;12.53;7.90;;;8.40;99.90;;;;;;1812981;79;21056;-79
2022/02/28 09:59:56;;;;;;;13.70;8.50;;;8.40;99.90;;;;;;1813020;79;21070;-78
2022/02/28 10:02:23;;;;;;;12.88;7.78;;;8.60;99.90;;;;;;1812985;79;21500;-80
2022/02/28 10:04:53;;;;;;;14.63;7.80;;;8.40;99.90;;;;;;1812948;79;21502;-78
2022/02/28 10:07:21;;;;;;;12.43;8.10;;;8.90;99.90;;;;;;1812818;79;21055;-79
2022/02/28 10:09:52;;;;;;;10.32;7.25;;;8.80;99.90;;;;;;1823902;78;21159;-79
2022/02/28 10:12:19;;;;;;;20.52;7.78;;;8.30;99.90;;;;;;1813769;77;21078;-79
2022/02/28 10:14:46;;;;;;;13.65;8.20;;;8.60;99.90;;;;;;1813039;79;21103;-79
2022/02/28 10:17:14;;;;;;;19.80;8.10;;;8.80;99.90;;;;;;1813008;79;21053;-79
2022/02/28 10:19:43;;;;;;;12.47;7.97;;;9.00;99.90;;;;;;1816340;77;21156;-79
2022/02/28 10:22:12;;;;;;;13.50;8.30;;;9.10;99.90;;;;;;1814162;79;21035;-79
2022/02/28 10:24:40;;;;;;;11.68;7.83;;;9.10;99.90;;;;;;1827635;78;21070;-78
2022/02/28 10:27:08;;;;;;;14.40;7.75;;;9.00;99.90;;;;;;1825777;77;21109;-79
2022/02/28 10:29:41;;;;;;;13.75;7.40;;;9.60;99.90;;;;;;1814447;79;21105;-80
2022/02/28 10:32:11;;;;;;;10.00;6.87;;;9.60;98.70;;;;;;1814451;78;21527;-80
2022/02/28 10:35:59;;;;;;;23.57;8.58;;;9.40;99.60;;;;;;1792116;78;21058;-80
2022/02/28 10:37:08;;;;;;;12.30;7.20;;;9.40;98.60;;;;;;1816853;77;21182;-80
2022/02/28 10:39:42;;;;;;;12.05;7.37;;;9.70;98.90;;;;;;1814052;79;21306;-80
2022/02/28 10:42:15;;;;;;;13.58;8.03;;;10.40;98.00;;;;;;1823766;78;21142;-80
2022/02/28 10:44:43;;;;;;;12.25;7.45;;;10.60;95.80;;;;;;1816700;79;21080;-79
2022/02/28 10:47:12;;;;;;;13.60;8.28;;;10.10;96.10;;;;;;1815770;79;21046;-79
2022/02/28 10:49:40;;;;;;;9.45;7.28;;;10.00;97.20;;;;;;1815773;79;21083;-79
2022/02/28 10:52:14;;;;;;;11.25;7.12;;;10.40;95.20;;;;;;1815847;79;21172;-79
2022/02/28 10:54:46;;;;;;;18.77;8.13;;;10.50;95.50;;;;;;1815567;78;21153;-79
2022/02/28 10:57:17;;;;;;;12.95;7.58;;;10.50;93.80;;;;;;1815673;79;21125;-79
2022/02/28 10:59:47;;;;;;;13.95;7.45;;;10.40;94.40;;;;;;1793852;79;21046;-79
2022/02/28 11:02:29;;;;;;;11.12;6.70;;;10.80;93.60;;;;;;1814845;79;21050;-79
2022/02/28 11:05:17;;;;;;;9.68;6.92;;;11.10;93.40;;;;;;1813176;79;21137;-77
2022/02/28 11:07:45;;;;;;;11.10;6.78;;;10.80;92.50;;;;;;1814289;79;21458;-79
2022/02/28 11:10:12;;;;;;;9.55;6.97;;;11.10;91.30;;;;;;1813534;79;21050;-78
2022/02/28 11:12:41;;;;;;;11.22;7.25;;;10.60;90.60;;;;;;1820153;78;21082;-80
2022/02/28 11:15:15;;;;;;;11.97;7.20;;;10.80;90.80;;;;;;1813223;79;21057;-80
2022/02/28 11:17:51;;;;;;;15.48;6.90;;;11.30;90.00;;;;;;1813312;78;21127;-79
2022/02/28 11:20:37;;;;;;;14.35;7.58;;;11.10;90.40;;;;;;1813315;78;21059;-79
2022/02/28 11:23:04;;;;;;;9.58;6.58;;;11.20;87.30;;;;;;1813467;79;21055;-79
2022/02/28 11:25:32;;;;;;;11.45;7.15;;;11.30;87.80;;;;;;1813161;79;21131;-79
2022/02/28 11:28:00;;;;;;;11.10;6.55;;;11.50;86.30;;;;;;1813387;79;21054;-79
2022/02/28 11:30:29;;;;;;;10.48;7.22;;;11.40;85.00;;;;;;1813223;79;21148;-80
2022/02/28 11:33:05;;;;;;;11.80;6.25;;;11.90;83.30;;;;;;1813278;78;21093;-79
2022/02/28 11:35:43;;;;;;;11.97;6.85;;;11.30;82.90;;;;;;1812276;79;21046;-79
2022/02/28 11:38:13;;;;;;;10.90;6.33;;;11.00;86.10;;;;;;1813212;79;21442;-78
2022/02/28 11:40:41;;;;;;;12.82;7.42;;;11.40;84.40;;;;;;1790174;78;21085;-78
2022/02/28 11:43:16;;;;;;;10.75;6.75;;;12.00;82.10;;;;;;1791474;78;21159;-79
2022/02/28 11:45:52;;;;;;;12.47;6.67;;;12.20;79.80;;;;;;1825915;77;21093;-79
2022/02/28 11:48:28;;;;;;;14.93;6.67;;;11.20;80.00;;;;;;1814125;79;21121;-80
2022/02/28 11:51:18;;;;;;;10.80;6.40;;;11.30;82.20;;;;;;1813302;79;21109;-80
2022/02/28 11:53:50;;;;;;;12.58;6.17;;;11.40;81.40;;;;;;1813162;79;21062;-79
2022/02/28 11:56:21;;;;;;;16.35;6.85;;;11.80;80.30;;;;;;1813013;79;21120;-82
2022/02/28 11:58:55;;;;;;;11.53;6.00;;;11.70;77.90;;;;;;1812997;79;21414;-78
2022/02/28 12:01:33;;;;;;;13.48;6.12;;;11.60;79.20;;;;;;1812967;79;21504;-77
2022/02/28 12:04:11;;;;;;;13.13;6.90;;;11.70;78.80;;;;;;1790329;79;21165;-77
2022/02/28 12:06:55;;;;;;;11.08;6.10;;;12.10;74.70;;;;;;1812796;77;21544;-80
2022/02/28 12:09:37;;;;;;;9.38;6.42;;;11.80;76.10;;;;;;1812883;79;21115;-78
2022/02/28 12:12:33;;;;;;;14.43;6.60;;;12.00;73.30;;;;;;1810644;78;21081;-78
2022/02/28 12:15:04;;;;;;;11.38;6.97;;;12.20;75.50;;;;;;1812961;79;21043;-79
2022/02/28 12:17:40;;;;;;;10.00;6.72;;;12.20;74.20;;;;;;1813009;79;21439;-79
2022/02/28 12:20:20;;;;;;;10.45;6.17;;;12.70;74.50;;;;;;1812912;79;21058;-79
2022/02/28 12:23:05;;;;;;;8.70;6.00;;;12.80;75.30;;;;;;1813300;79;21147;-79
2022/02/28 12:25:35;;;;;;;10.65;6.60;;;13.70;69.20;;;;;;1812746;78;21509;-79
2022/02/28 12:28:16;;;;;;;11.93;6.42;;;13.70;68.40;;;;;;1812880;79;21124;-79
2022/02/28 12:30:51;;;;;;;12.20;6.08;;;13.30;67.50;;;;;;1813060;79;21517;-78
2022/02/28 12:33:36;;;;;;;11.05;6.22;;;13.70;68.30;;;;;;1814126;77;21101;-79
2022/02/28 12:36:22;;;;;;;14.25;6.55;;;13.20;67.50;;;;;;1829741;78;21063;-78
2022/02/28 12:38:52;;;;;;;13.30;6.03;;;13.50;68.10;;;;;;1829622;78;21050;-78
2022/02/28 12:41:29;;;;;;;7.95;5.78;;;13.90;68.00;;;;;;1829246;78;21063;-77
2022/02/28 12:43:58;;;;;;;8.43;6.37;;;14.10;67.00;;;;;;1829701;78;21078;-78
2022/02/28 12:46:35;;;;;;;10.55;7.10;;;13.30;68.00;;;;;;1829603;78;21053;-78
2022/02/28 12:49:03;;;;;;;11.88;6.78;;;12.30;69.80;;;;;;1829642;78;21479;-77